sensor_id;sensor_type;location;lat;lon;timestamp;P1;durP1;ratioP1;P2;durP2;ratioP2
46593;SDS011;35342;52.378;4.648;2023-03-11T00:00:21;3.10;;;0.60;;
46593;SDS011;35342;52.378;4.648;2023-03-11T00:02:50;2.35;;;0.90;;
46593;SDS011;35342;52.378;4.648;2023-03-11T00:05:28;1.20;;;0.80;;
46593;SDS011;35342;52.378;4.648;2023-03-11T00:07:57;2.05;;;1.23;;
46593;SDS011;35342;52.378;4.648;2023-03-11T00:10:25;1.50;;;1.10;;
46593;SDS011;35342;52.378;4.648;2023-03-11T00:13:07;6.82;;;1.05;;
46593;SDS011;35342;52.378;4.648;2023-03-11T00:15:35;2.13;;;0.85;;
46593;SDS011;35342;52.378;4.648;2023-03-11T00:18:02;6.63;;;1.55;;
46593;SDS011;35342;52.378;4.648;2023-03-11T00:20:31;1.75;;;0.77;;
46593;SDS011;35342;52.378;4.648;2023-03-11T00:23:00;4.38;;;0.93;;
46593;SDS011;35342;52.378;4.648;2023-03-11T00:25:27;1.95;;;0.80;;
46593;SDS011;35342;52.378;4.648;2023-03-11T00:27:55;1.75;;;1.60;;
46593;SDS011;35342;52.378;4.648;2023-03-11T00:30:22;4.13;;;1.20;;
46593;SDS011;35342;52.378;4.648;2023-03-11T00:32:49;2.45;;;0.82;;
46593;SDS011;35342;52.378;4.648;2023-03-11T00:35:18;1.95;;;1.10;;
46593;SDS011;35342;52.378;4.648;2023-03-11T00:37:52;2.30;;;1.20;;
46593;SDS011;35342;52.378;4.648;2023-03-11T00:40:21;3.38;;;0.95;;
46593;SDS011;35342;52.378;4.648;2023-03-11T00:42:48;1.70;;;0.70;;
46593;SDS011;35342;52.378;4.648;2023-03-11T00:45:15;3.72;;;1.13;;
46593;SDS011;35342;52.378;4.648;2023-03-11T00:47:41;3.83;;;1.10;;
46593;SDS011;35342;52.378;4.648;2023-03-11T00:50:07;5.80;;;0.90;;
46593;SDS011;35342;52.378;4.648;2023-03-11T00:52:37;3.08;;;0.80;;
46593;SDS011;35342;52.378;4.648;2023-03-11T00:55:04;5.80;;;1.30;;
46593;SDS011;35342;52.378;4.648;2023-03-11T00:57:30;2.53;;;0.98;;
46593;SDS011;35342;52.378;4.648;2023-03-11T00:59:57;5.95;;;0.93;;
46593;SDS011;35342;52.378;4.648;2023-03-11T01:02:24;10.20;;;1.88;;
46593;SDS011;35342;52.378;4.648;2023-03-11T01:04:53;5.63;;;1.42;;
46593;SDS011;35342;52.378;4.648;2023-03-11T01:07:20;13.93;;;2.00;;
46593;SDS011;35342;52.378;4.648;2023-03-11T01:09:46;2.55;;;0.55;;
46593;SDS011;35342;52.378;4.648;2023-03-11T01:12:12;2.95;;;0.65;;
46593;SDS011;35342;52.378;4.648;2023-03-11T01:14:38;1.77;;;0.52;;
46593;SDS011;35342;52.378;4.648;2023-03-11T01:17:04;4.60;;;0.57;;
46593;SDS011;35342;52.378;4.648;2023-03-11T01:19:30;4.35;;;1.45;;
46593;SDS011;35342;52.378;4.648;2023-03-11T01:21:56;2.15;;;0.75;;
46593;SDS011;35342;52.378;4.648;2023-03-11T01:24:22;3.65;;;0.68;;
46593;SDS011;35342;52.378;4.648;2023-03-11T01:26:47;5.50;;;0.70;;
46593;SDS011;35342;52.378;4.648;2023-03-11T01:29:13;2.05;;;0.90;;
46593;SDS011;35342;52.378;4.648;2023-03-11T01:31:39;2.50;;;0.70;;
46593;SDS011;35342;52.378;4.648;2023-03-11T01:34:05;7.95;;;0.98;;
46593;SDS011;35342;52.378;4.648;2023-03-11T01:36:30;2.55;;;0.70;;
46593;SDS011;35342;52.378;4.648;2023-03-11T01:38:56;3.00;;;0.82;;
46593;SDS011;35342;52.378;4.648;2023-03-11T01:41:22;3.00;;;0.70;;
46593;SDS011;35342;52.378;4.648;2023-03-11T01:43:49;10.07;;;2.08;;
46593;SDS011;35342;52.378;4.648;2023-03-11T01:48:53;5.20;;;0.97;;
46593;SDS011;35342;52.378;4.648;2023-03-11T01:54:20;4.50;;;1.15;;
46593;SDS011;35342;52.378;4.648;2023-03-11T01:56:55;6.97;;;1.23;;
46593;SDS011;35342;52.378;4.648;2023-03-11T01:59:25;4.13;;;1.23;;
46593;SDS011;35342;52.378;4.648;2023-03-11T02:02:07;3.97;;;1.58;;
46593;SDS011;35342;52.378;4.648;2023-03-11T02:04:57;6.93;;;1.27;;
46593;SDS011;35342;52.378;4.648;2023-03-11T02:07:26;6.47;;;1.30;;
46593;SDS011;35342;52.378;4.648;2023-03-11T02:09:52;2.50;;;0.77;;
46593;SDS011;35342;52.378;4.648;2023-03-11T02:12:18;4.07;;;1.40;;
46593;SDS011;35342;52.378;4.648;2023-03-11T02:14:46;6.93;;;0.70;;
46593;SDS011;35342;52.378;4.648;2023-03-11T02:17:15;2.25;;;1.08;;
46593;SDS011;35342;52.378;4.648;2023-03-11T02:22:25;3.33;;;0.60;;
46593;SDS011;35342;52.378;4.648;2023-03-11T02:25:40;3.92;;;1.08;;
46593;SDS011;35342;52.378;4.648;2023-03-11T02:28:07;3.83;;;0.80;;
46593;SDS011;35342;52.378;4.648;2023-03-11T02:30:38;1.63;;;1.02;;
46593;SDS011;35342;52.378;4.648;2023-03-11T02:33:07;1.60;;;0.80;;
46593;SDS011;35342;52.378;4.648;2023-03-11T02:35:34;0.90;;;0.63;;
46593;SDS011;35342;52.378;4.648;2023-03-11T02:38:00;2.97;;;1.13;;
46593;SDS011;35342;52.378;4.648;2023-03-11T02:42:58;3.17;;;0.57;;
46593;SDS011;35342;52.378;4.648;2023-03-11T02:45:28;1.23;;;0.60;;
46593;SDS011;35342;52.378;4.648;2023-03-11T02:47:55;1.60;;;0.50;;
46593;SDS011;35342;52.378;4.648;2023-03-11T02:50:23;2.13;;;0.68;;
46593;SDS011;35342;52.378;4.648;2023-03-11T02:52:51;1.25;;;0.60;;
46593;SDS011;35342;52.378;4.648;2023-03-11T02:55:17;4.45;;;0.60;;
46593;SDS011;35342;52.378;4.648;2023-03-11T02:57:45;2.72;;;0.80;;
46593;SDS011;35342;52.378;4.648;2023-03-11T03:00:13;4.32;;;0.70;;
46593;SDS011;35342;52.378;4.648;2023-03-11T03:02:44;1.75;;;0.47;;
46593;SDS011;35342;52.378;4.648;2023-03-11T03:05:10;6.35;;;1.30;;
46593;SDS011;35342;52.378;4.648;2023-03-11T03:07:37;2.90;;;1.00;;
46593;SDS011;35342;52.378;4.648;2023-03-11T03:10:04;7.57;;;0.50;;
46593;SDS011;35342;52.378;4.648;2023-03-11T03:12:31;1.60;;;0.60;;
46593;SDS011;35342;52.378;4.648;2023-03-11T03:14:56;5.40;;;0.70;;
46593;SDS011;35342;52.378;4.648;2023-03-11T03:17:23;3.05;;;0.68;;
46593;SDS011;35342;52.378;4.648;2023-03-11T03:19:49;3.05;;;0.57;;
46593;SDS011;35342;52.378;4.648;2023-03-11T03:22:15;2.35;;;0.50;;
46593;SDS011;35342;52.378;4.648;2023-03-11T03:24:40;4.45;;;0.60;;
46593;SDS011;35342;52.378;4.648;2023-03-11T03:27:06;1.52;;;0.50;;
46593;SDS011;35342;52.378;4.648;2023-03-11T03:29:32;4.43;;;0.70;;
46593;SDS011;35342;52.378;4.648;2023-03-11T03:31:58;0.80;;;0.80;;
46593;SDS011;35342;52.378;4.648;2023-03-11T03:34:24;2.25;;;0.52;;
46593;SDS011;35342;52.378;4.648;2023-03-11T03:36:49;2.35;;;0.55;;
46593;SDS011;35342;52.378;4.648;2023-03-11T03:39:15;2.60;;;0.57;;
46593;SDS011;35342;52.378;4.648;2023-03-11T03:41:43;4.00;;;0.65;;
46593;SDS011;35342;52.378;4.648;2023-03-11T03:44:09;2.80;;;0.73;;
46593;SDS011;35342;52.378;4.648;2023-03-11T03:46:35;3.28;;;0.60;;
46593;SDS011;35342;52.378;4.648;2023-03-11T03:49:02;3.00;;;0.45;;
46593;SDS011;35342;52.378;4.648;2023-03-11T03:51:28;0.93;;;0.70;;
46593;SDS011;35342;52.378;4.648;2023-03-11T03:53:54;8.25;;;1.15;;
46593;SDS011;35342;52.378;4.648;2023-03-11T03:56:20;6.75;;;1.00;;
46593;SDS011;35342;52.378;4.648;2023-03-11T03:58:45;1.75;;;0.80;;
46593;SDS011;35342;52.378;4.648;2023-03-11T04:01:12;1.67;;;0.80;;
46593;SDS011;35342;52.378;4.648;2023-03-11T04:03:38;2.47;;;0.80;;
46593;SDS011;35342;52.378;4.648;2023-03-11T04:06:04;4.70;;;0.82;;
46593;SDS011;35342;52.378;4.648;2023-03-11T04:08:33;5.75;;;0.93;;
46593;SDS011;35342;52.378;4.648;2023-03-11T04:10:59;2.03;;;0.73;;
46593;SDS011;35342;52.378;4.648;2023-03-11T04:13:25;2.33;;;1.15;;
46593;SDS011;35342;52.378;4.648;2023-03-11T04:15:51;2.30;;;0.88;;
46593;SDS011;35342;52.378;4.648;2023-03-11T04:18:17;5.28;;;0.98;;
46593;SDS011;35342;52.378;4.648;2023-03-11T04:20:42;3.28;;;1.20;;
46593;SDS011;35342;52.378;4.648;2023-03-11T04:23:08;4.00;;;0.98;;
46593;SDS011;35342;52.378;4.648;2023-03-11T04:25:34;3.60;;;1.00;;
46593;SDS011;35342;52.378;4.648;2023-03-11T04:28:00;1.75;;;1.25;;
46593;SDS011;35342;52.378;4.648;2023-03-11T04:30:26;5.47;;;1.25;;
46593;SDS011;35342;52.378;4.648;2023-03-11T04:32:52;4.70;;;1.10;;
46593;SDS011;35342;52.378;4.648;2023-03-11T04:35:17;1.33;;;0.80;;
46593;SDS011;35342;52.378;4.648;2023-03-11T04:37:43;2.50;;;1.10;;
46593;SDS011;35342;52.378;4.648;2023-03-11T04:40:09;3.97;;;1.27;;
46593;SDS011;35342;52.378;4.648;2023-03-11T04:42:36;2.90;;;1.35;;
46593;SDS011;35342;52.378;4.648;2023-03-11T04:45:03;1.55;;;0.90;;
46593;SDS011;35342;52.378;4.648;2023-03-11T04:47:30;8.65;;;2.03;;
46593;SDS011;35342;52.378;4.648;2023-03-11T04:49:56;4.10;;;1.05;;
46593;SDS011;35342;52.378;4.648;2023-03-11T04:52:22;2.10;;;1.13;;
46593;SDS011;35342;52.378;4.648;2023-03-11T04:54:48;1.30;;;0.82;;
46593;SDS011;35342;52.378;4.648;2023-03-11T04:57:14;4.00;;;1.55;;
46593;SDS011;35342;52.378;4.648;2023-03-11T04:59:39;6.30;;;1.40;;
46593;SDS011;35342;52.378;4.648;2023-03-11T05:02:06;2.58;;;1.60;;
46593;SDS011;35342;52.378;4.648;2023-03-11T05:04:32;3.20;;;1.33;;
46593;SDS011;35342;52.378;4.648;2023-03-11T05:06:58;5.50;;;1.38;;
46593;SDS011;35342;52.378;4.648;2023-03-11T05:09:24;3.53;;;1.20;;
46593;SDS011;35342;52.378;4.648;2023-03-11T05:11:50;2.55;;;1.08;;
46593;SDS011;35342;52.378;4.648;2023-03-11T05:14:16;4.88;;;0.88;;
46593;SDS011;35342;52.378;4.648;2023-03-11T05:16:41;3.63;;;1.58;;
46593;SDS011;35342;52.378;4.648;2023-03-11T05:19:07;2.25;;;1.50;;
46593;SDS011;35342;52.378;4.648;2023-03-11T05:21:52;4.90;;;0.95;;
46593;SDS011;35342;52.378;4.648;2023-03-11T05:24:18;5.63;;;1.45;;
46593;SDS011;35342;52.378;4.648;2023-03-11T05:26:44;5.28;;;1.50;;
46593;SDS011;35342;52.378;4.648;2023-03-11T05:29:09;2.10;;;1.48;;
46593;SDS011;35342;52.378;4.648;2023-03-11T05:31:36;4.70;;;1.45;;
46593;SDS011;35342;52.378;4.648;2023-03-11T05:34:02;2.22;;;1.30;;
46593;SDS011;35342;52.378;4.648;2023-03-11T05:36:28;7.32;;;1.00;;
46593;SDS011;35342;52.378;4.648;2023-03-11T05:38:54;2.47;;;1.38;;
46593;SDS011;35342;52.378;4.648;2023-03-11T05:41:20;2.60;;;1.38;;
46593;SDS011;35342;52.378;4.648;2023-03-11T05:43:47;3.58;;;0.82;;
46593;SDS011;35342;52.378;4.648;2023-03-11T05:46:13;2.35;;;1.20;;
46593;SDS011;35342;52.378;4.648;2023-03-11T05:48:39;4.20;;;0.93;;
46593;SDS011;35342;52.378;4.648;2023-03-11T05:51:05;5.18;;;1.48;;
46593;SDS011;35342;52.378;4.648;2023-03-11T05:53:35;1.65;;;0.55;;
46593;SDS011;35342;52.378;4.648;2023-03-11T05:56:01;2.00;;;0.90;;
46593;SDS011;35342;52.378;4.648;2023-03-11T05:58:29;6.03;;;1.15;;
46593;SDS011;35342;52.378;4.648;2023-03-11T06:00:56;1.50;;;0.70;;
46593;SDS011;35342;52.378;4.648;2023-03-11T06:03:24;0.68;;;0.68;;
46593;SDS011;35342;52.378;4.648;2023-03-11T06:05:50;1.90;;;1.10;;
46593;SDS011;35342;52.378;4.648;2023-03-11T06:08:17;5.97;;;1.30;;
46593;SDS011;35342;52.378;4.648;2023-03-11T06:10:43;3.17;;;1.00;;
46593;SDS011;35342;52.378;4.648;2023-03-11T06:13:09;1.45;;;1.17;;
46593;SDS011;35342;52.378;4.648;2023-03-11T06:15:36;5.30;;;1.10;;
46593;SDS011;35342;52.378;4.648;2023-03-11T06:18:03;1.48;;;1.02;;
46593;SDS011;35342;52.378;4.648;2023-03-11T06:20:29;1.98;;;1.10;;
46593;SDS011;35342;52.378;4.648;2023-03-11T06:22:55;3.50;;;1.27;;
46593;SDS011;35342;52.378;4.648;2023-03-11T06:25:21;3.10;;;1.13;;
46593;SDS011;35342;52.378;4.648;2023-03-11T06:27:50;6.18;;;1.48;;
46593;SDS011;35342;52.378;4.648;2023-03-11T06:30:17;6.35;;;1.50;;
46593;SDS011;35342;52.378;4.648;2023-03-11T06:32:44;5.03;;;1.27;;
46593;SDS011;35342;52.378;4.648;2023-03-11T06:35:11;3.58;;;1.50;;
46593;SDS011;35342;52.378;4.648;2023-03-11T06:37:37;4.47;;;1.25;;
46593;SDS011;35342;52.378;4.648;2023-03-11T06:40:07;1.52;;;1.25;;
46593;SDS011;35342;52.378;4.648;2023-03-11T06:42:34;3.13;;;1.20;;
46593;SDS011;35342;52.378;4.648;2023-03-11T06:45:00;1.80;;;1.05;;
46593;SDS011;35342;52.378;4.648;2023-03-11T06:47:26;2.55;;;1.02;;
46593;SDS011;35342;52.378;4.648;2023-03-11T06:49:52;2.50;;;1.00;;
46593;SDS011;35342;52.378;4.648;2023-03-11T06:52:18;1.65;;;1.20;;
46593;SDS011;35342;52.378;4.648;2023-03-11T06:54:44;2.90;;;1.27;;
46593;SDS011;35342;52.378;4.648;2023-03-11T06:57:11;4.53;;;1.25;;
46593;SDS011;35342;52.378;4.648;2023-03-11T06:59:37;6.63;;;0.80;;
46593;SDS011;35342;52.378;4.648;2023-03-11T07:02:03;1.50;;;0.98;;
46593;SDS011;35342;52.378;4.648;2023-03-11T07:04:31;10.20;;;1.48;;
46593;SDS011;35342;52.378;4.648;2023-03-11T07:06:57;1.23;;;0.70;;
46593;SDS011;35342;52.378;4.648;2023-03-11T07:09:23;3.03;;;1.02;;
46593;SDS011;35342;52.378;4.648;2023-03-11T07:11:50;5.47;;;0.95;;
46593;SDS011;35342;52.378;4.648;2023-03-11T07:14:16;3.95;;;1.17;;
46593;SDS011;35342;52.378;4.648;2023-03-11T07:16:45;4.70;;;1.65;;
46593;SDS011;35342;52.378;4.648;2023-03-11T07:19:12;5.28;;;1.60;;
46593;SDS011;35342;52.378;4.648;2023-03-11T07:21:39;4.28;;;1.52;;
46593;SDS011;35342;52.378;4.648;2023-03-11T07:24:05;3.60;;;1.40;;
46593;SDS011;35342;52.378;4.648;2023-03-11T07:26:32;4.03;;;0.90;;
46593;SDS011;35342;52.378;4.648;2023-03-11T07:28:59;3.97;;;1.25;;
46593;SDS011;35342;52.378;4.648;2023-03-11T07:31:27;2.88;;;1.00;;
46593;SDS011;35342;52.378;4.648;2023-03-11T07:34:00;7.38;;;1.33;;
46593;SDS011;35342;52.378;4.648;2023-03-11T07:36:30;5.50;;;1.25;;
46593;SDS011;35342;52.378;4.648;2023-03-11T07:39:00;3.25;;;1.33;;
46593;SDS011;35342;52.378;4.648;2023-03-11T07:41:30;4.43;;;1.15;;
46593;SDS011;35342;52.378;4.648;2023-03-11T07:43:58;3.55;;;1.65;;
46593;SDS011;35342;52.378;4.648;2023-03-11T07:46:26;4.53;;;1.30;;
46593;SDS011;35342;52.378;4.648;2023-03-11T07:48:53;4.18;;;1.05;;
46593;SDS011;35342;52.378;4.648;2023-03-11T07:51:21;2.33;;;0.95;;
46593;SDS011;35342;52.378;4.648;2023-03-11T07:53:54;3.57;;;1.60;;
46593;SDS011;35342;52.378;4.648;2023-03-11T07:56:22;6.18;;;1.70;;
46593;SDS011;35342;52.378;4.648;2023-03-11T07:58:49;2.08;;;1.15;;
46593;SDS011;35342;52.378;4.648;2023-03-11T08:01:17;3.72;;;1.50;;
46593;SDS011;35342;52.378;4.648;2023-03-11T08:03:48;3.05;;;1.00;;
46593;SDS011;35342;52.378;4.648;2023-03-11T08:06:21;4.18;;;1.13;;
46593;SDS011;35342;52.378;4.648;2023-03-11T08:08:50;3.75;;;1.17;;
46593;SDS011;35342;52.378;4.648;2023-03-11T08:11:17;3.65;;;1.13;;
46593;SDS011;35342;52.378;4.648;2023-03-11T08:13:45;3.95;;;0.77;;
46593;SDS011;35342;52.378;4.648;2023-03-11T08:16:13;3.30;;;0.90;;
46593;SDS011;35342;52.378;4.648;2023-03-11T08:18:42;2.30;;;1.23;;
46593;SDS011;35342;52.378;4.648;2023-03-11T08:21:10;3.60;;;1.15;;
46593;SDS011;35342;52.378;4.648;2023-03-11T08:23:38;5.10;;;1.17;;
46593;SDS011;35342;52.378;4.648;2023-03-11T08:26:05;5.40;;;1.75;;
46593;SDS011;35342;52.378;4.648;2023-03-11T08:28:38;5.07;;;1.45;;
46593;SDS011;35342;52.378;4.648;2023-03-11T08:31:14;4.88;;;1.30;;
46593;SDS011;35342;52.378;4.648;2023-03-11T08:33:44;1.90;;;1.10;;
46593;SDS011;35342;52.378;4.648;2023-03-11T08:36:13;2.72;;;1.05;;
46593;SDS011;35342;52.378;4.648;2023-03-11T08:38:40;8.07;;;1.52;;
46593;SDS011;35342;52.378;4.648;2023-03-11T08:41:06;6.43;;;1.30;;
46593;SDS011;35342;52.378;4.648;2023-03-11T08:43:32;6.68;;;1.48;;
46593;SDS011;35342;52.378;4.648;2023-03-11T08:45:59;5.90;;;1.20;;
46593;SDS011;35342;52.378;4.648;2023-03-11T08:48:26;2.55;;;0.80;;
46593;SDS011;35342;52.378;4.648;2023-03-11T08:50:52;3.70;;;1.50;;
46593;SDS011;35342;52.378;4.648;2023-03-11T08:53:18;5.80;;;1.33;;
46593;SDS011;35342;52.378;4.648;2023-03-11T08:55:45;4.30;;;1.15;;
46593;SDS011;35342;52.378;4.648;2023-03-11T08:58:11;4.95;;;1.65;;
46593;SDS011;35342;52.378;4.648;2023-03-11T09:00:36;3.70;;;1.20;;
46593;SDS011;35342;52.378;4.648;2023-03-11T09:03:02;4.43;;;0.82;;
46593;SDS011;35342;52.378;4.648;2023-03-11T09:05:28;3.05;;;0.90;;
46593;SDS011;35342;52.378;4.648;2023-03-11T09:07:54;7.03;;;1.23;;
46593;SDS011;35342;52.378;4.648;2023-03-11T09:10:20;2.53;;;0.90;;
46593;SDS011;35342;52.378;4.648;2023-03-11T09:12:47;2.92;;;0.77;;
46593;SDS011;35342;52.378;4.648;2023-03-11T09:15:13;4.82;;;0.82;;
46593;SDS011;35342;52.378;4.648;2023-03-11T09:17:38;5.53;;;0.95;;
46593;SDS011;35342;52.378;4.648;2023-03-11T09:20:05;5.75;;;1.10;;
46593;SDS011;35342;52.378;4.648;2023-03-11T09:22:32;6.43;;;0.45;;
46593;SDS011;35342;52.378;4.648;2023-03-11T09:24:57;3.22;;;0.80;;
46593;SDS011;35342;52.378;4.648;2023-03-11T09:27:23;2.20;;;0.52;;
46593;SDS011;35342;52.378;4.648;2023-03-11T09:29:49;2.38;;;0.45;;
46593;SDS011;35342;52.378;4.648;2023-03-11T09:32:15;2.85;;;0.55;;
46593;SDS011;35342;52.378;4.648;2023-03-11T09:34:41;1.77;;;0.63;;
46593;SDS011;35342;52.378;4.648;2023-03-11T09:37:07;2.25;;;0.98;;
46593;SDS011;35342;52.378;4.648;2023-03-11T09:39:33;5.72;;;0.70;;
46593;SDS011;35342;52.378;4.648;2023-03-11T09:42:03;4.32;;;0.52;;
46593;SDS011;35342;52.378;4.648;2023-03-11T09:50:57;10.80;;;0.70;;
46593;SDS011;35342;52.378;4.648;2023-03-11T09:56:06;2.70;;;0.60;;
46593;SDS011;35342;52.378;4.648;2023-03-11T09:58:51;6.03;;;0.82;;
46593;SDS011;35342;52.378;4.648;2023-03-11T10:01:45;5.50;;;0.88;;
46593;SDS011;35342;52.378;4.648;2023-03-11T10:06:51;2.30;;;0.70;;
46593;SDS011;35342;52.378;4.648;2023-03-11T10:10:00;2.45;;;0.75;;
46593;SDS011;35342;52.378;4.648;2023-03-11T10:15:51;1.55;;;0.35;;
46593;SDS011;35342;52.378;4.648;2023-03-11T10:21:54;3.15;;;0.63;;
46593;SDS011;35342;52.378;4.648;2023-03-11T10:27:47;2.75;;;0.40;;
46593;SDS011;35342;52.378;4.648;2023-03-11T10:33:03;1.77;;;0.60;;
46593;SDS011;35342;52.378;4.648;2023-03-11T10:35:52;6.63;;;0.70;;
46593;SDS011;35342;52.378;4.648;2023-03-11T10:40:58;1.95;;;0.50;;
46593;SDS011;35342;52.378;4.648;2023-03-11T10:46:18;4.30;;;0.50;;
46593;SDS011;35342;52.378;4.648;2023-03-11T10:48:50;3.63;;;0.60;;
46593;SDS011;35342;52.378;4.648;2023-03-11T10:51:19;2.92;;;0.55;;
46593;SDS011;35342;52.378;4.648;2023-03-11T10:53:52;3.58;;;0.50;;
46593;SDS011;35342;52.378;4.648;2023-03-11T10:56:54;2.03;;;0.50;;
46593;SDS011;35342;52.378;4.648;2023-03-11T11:01:55;3.70;;;0.73;;
46593;SDS011;35342;52.378;4.648;2023-03-11T11:04:34;2.47;;;0.40;;
46593;SDS011;35342;52.378;4.648;2023-03-11T11:10:19;1.73;;;0.60;;
46593;SDS011;35342;52.378;4.648;2023-03-11T11:15:30;3.08;;;0.60;;
46593;SDS011;35342;52.378;4.648;2023-03-11T11:18:00;5.25;;;0.50;;
46593;SDS011;35342;52.378;4.648;2023-03-11T11:20:30;1.92;;;1.00;;
46593;SDS011;35342;52.378;4.648;2023-03-11T11:22:59;8.10;;;0.75;;
46593;SDS011;35342;52.378;4.648;2023-03-11T11:25:35;3.97;;;0.70;;
46593;SDS011;35342;52.378;4.648;2023-03-11T11:28:12;3.67;;;0.75;;
46593;SDS011;35342;52.378;4.648;2023-03-11T11:31:18;1.98;;;0.50;;
46593;SDS011;35342;52.378;4.648;2023-03-11T11:33:53;2.35;;;0.45;;
46593;SDS011;35342;52.378;4.648;2023-03-11T11:36:31;3.17;;;0.80;;
46593;SDS011;35342;52.378;4.648;2023-03-11T11:39:00;5.32;;;0.75;;
46593;SDS011;35342;52.378;4.648;2023-03-11T11:41:35;3.95;;;1.23;;
46593;SDS011;35342;52.378;4.648;2023-03-11T11:44:05;3.55;;;0.60;;
46593;SDS011;35342;52.378;4.648;2023-03-11T11:49:28;1.27;;;0.40;;
46593;SDS011;35342;52.378;4.648;2023-03-11T11:52:15;2.75;;;0.73;;
46593;SDS011;35342;52.378;4.648;2023-03-11T11:54:49;3.92;;;0.50;;
46593;SDS011;35342;52.378;4.648;2023-03-11T11:57:41;2.60;;;0.60;;
46593;SDS011;35342;52.378;4.648;2023-03-11T12:00:17;2.80;;;0.55;;
46593;SDS011;35342;52.378;4.648;2023-03-11T12:06:19;2.15;;;1.40;;
46593;SDS011;35342;52.378;4.648;2023-03-11T12:09:25;2.47;;;0.50;;
46593;SDS011;35342;52.378;4.648;2023-03-11T12:12:48;2.72;;;0.50;;
46593;SDS011;35342;52.378;4.648;2023-03-11T12:15:35;3.92;;;0.50;;
46593;SDS011;35342;52.378;4.648;2023-03-11T12:21:32;0.73;;;0.40;;
46593;SDS011;35342;52.378;4.648;2023-03-11T12:30:17;5.55;;;0.77;;
46593;SDS011;35342;52.378;4.648;2023-03-11T12:33:55;1.67;;;0.50;;
46593;SDS011;35342;52.378;4.648;2023-03-11T12:36:31;5.53;;;0.60;;
46593;SDS011;35342;52.378;4.648;2023-03-11T12:49:30;7.20;;;1.35;;
46593;SDS011;35342;52.378;4.648;2023-03-11T12:54:40;1.00;;;0.70;;
46593;SDS011;35342;52.378;4.648;2023-03-11T12:57:35;2.50;;;0.50;;
46593;SDS011;35342;52.378;4.648;2023-03-11T13:00:37;1.60;;;0.43;;
46593;SDS011;35342;52.378;4.648;2023-03-11T13:06:14;2.92;;;0.50;;
46593;SDS011;35342;52.378;4.648;2023-03-11T13:08:54;1.42;;;0.50;;
46593;SDS011;35342;52.378;4.648;2023-03-11T13:19:52;2.90;;;1.08;;
46593;SDS011;35342;52.378;4.648;2023-03-11T13:25:26;2.03;;;0.37;;
46593;SDS011;35342;52.378;4.648;2023-03-11T13:42:19;6.00;;;1.27;;
46593;SDS011;35342;52.378;4.648;2023-03-11T13:44:56;0.68;;;0.52;;
46593;SDS011;35342;52.378;4.648;2023-03-11T13:47:23;2.85;;;0.47;;
46593;SDS011;35342;52.378;4.648;2023-03-11T13:49:59;1.95;;;0.28;;
46593;SDS011;35342;52.378;4.648;2023-03-11T13:52:42;1.17;;;0.50;;
46593;SDS011;35342;52.378;4.648;2023-03-11T13:55:59;1.05;;;0.38;;
46593;SDS011;35342;52.378;4.648;2023-03-11T13:58:16;5.80;;;0.83;;
46593;SDS011;35342;52.378;4.648;2023-03-11T14:00:48;3.92;;;0.55;;
46593;SDS011;35342;52.378;4.648;2023-03-11T14:03:27;2.83;;;0.40;;
46593;SDS011;35342;52.378;4.648;2023-03-11T14:06:05;1.65;;;0.50;;
46593;SDS011;35342;52.378;4.648;2023-03-11T14:08:38;2.65;;;0.45;;
46593;SDS011;35342;52.378;4.648;2023-03-11T14:13:43;4.88;;;0.75;;
46593;SDS011;35342;52.378;4.648;2023-03-11T14:21:33;6.25;;;0.63;;
46593;SDS011;35342;52.378;4.648;2023-03-11T14:23:59;1.63;;;0.60;;
46593;SDS011;35342;52.378;4.648;2023-03-11T14:26:28;6.65;;;0.80;;
46593;SDS011;35342;52.378;4.648;2023-03-11T14:28:58;2.15;;;0.88;;
46593;SDS011;35342;52.378;4.648;2023-03-11T14:31:33;3.38;;;0.50;;
46593;SDS011;35342;52.378;4.648;2023-03-11T14:36:46;2.08;;;0.98;;
46593;SDS011;35342;52.378;4.648;2023-03-11T14:45:03;7.65;;;1.00;;
46593;SDS011;35342;52.378;4.648;2023-03-11T14:47:37;6.82;;;0.68;;
46593;SDS011;35342;52.378;4.648;2023-03-11T14:50:15;3.85;;;0.52;;
46593;SDS011;35342;52.378;4.648;2023-03-11T14:52:51;0.60;;;0.40;;
46593;SDS011;35342;52.378;4.648;2023-03-11T14:55:42;2.58;;;0.75;;
46593;SDS011;35342;52.378;4.648;2023-03-11T15:01:14;4.80;;;0.60;;
46593;SDS011;35342;52.378;4.648;2023-03-11T15:06:28;2.35;;;0.52;;
46593;SDS011;35342;52.378;4.648;2023-03-11T15:14:36;4.40;;;0.50;;
46593;SDS011;35342;52.378;4.648;2023-03-11T15:17:17;3.63;;;1.25;;
46593;SDS011;35342;52.378;4.648;2023-03-11T15:19:52;3.03;;;0.73;;
46593;SDS011;35342;52.378;4.648;2023-03-11T15:22:30;5.82;;;0.63;;
46593;SDS011;35342;52.378;4.648;2023-03-11T15:25:13;4.50;;;0.80;;
46593;SDS011;35342;52.378;4.648;2023-03-11T15:27:42;3.22;;;0.63;;
46593;SDS011;35342;52.378;4.648;2023-03-11T15:30:19;2.83;;;0.73;;
46593;SDS011;35342;52.378;4.648;2023-03-11T15:32:56;2.90;;;1.08;;
46593;SDS011;35342;52.378;4.648;2023-03-11T15:35:27;5.68;;;0.65;;
46593;SDS011;35342;52.378;4.648;2023-03-11T15:38:10;5.82;;;0.63;;
46593;SDS011;35342;52.378;4.648;2023-03-11T15:40:53;3.45;;;0.90;;
46593;SDS011;35342;52.378;4.648;2023-03-11T15:43:31;6.70;;;0.95;;
46593;SDS011;35342;52.378;4.648;2023-03-11T15:46:07;6.53;;;1.42;;
46593;SDS011;35342;52.378;4.648;2023-03-11T15:48:34;5.00;;;0.90;;
46593;SDS011;35342;52.378;4.648;2023-03-11T15:51:00;7.55;;;1.15;;
46593;SDS011;35342;52.378;4.648;2023-03-11T15:53:26;6.28;;;1.67;;
46593;SDS011;35342;52.378;4.648;2023-03-11T15:55:54;3.58;;;0.90;;
46593;SDS011;35342;52.378;4.648;2023-03-11T15:58:24;0.95;;;0.57;;
46593;SDS011;35342;52.378;4.648;2023-03-11T16:00:55;3.05;;;0.75;;
46593;SDS011;35342;52.378;4.648;2023-03-11T16:03:22;2.95;;;0.70;;
46593;SDS011;35342;52.378;4.648;2023-03-11T16:05:48;2.72;;;0.65;;
46593;SDS011;35342;52.378;4.648;2023-03-11T16:08:14;3.03;;;0.60;;
46593;SDS011;35342;52.378;4.648;2023-03-11T16:10:40;3.42;;;0.70;;
46593;SDS011;35342;52.378;4.648;2023-03-11T16:13:09;1.17;;;0.60;;
46593;SDS011;35342;52.378;4.648;2023-03-11T16:15:39;1.90;;;0.65;;
46593;SDS011;35342;52.378;4.648;2023-03-11T17:14:29;4.95;;;1.50;;
46593;SDS011;35342;52.378;4.648;2023-03-11T17:16:56;9.25;;;3.33;;
46593;SDS011;35342;52.378;4.648;2023-03-11T17:19:22;7.10;;;2.10;;
46593;SDS011;35342;52.378;4.648;2023-03-11T17:21:49;8.05;;;3.95;;
46593;SDS011;35342;52.378;4.648;2023-03-11T17:24:15;11.00;;;4.38;;
46593;SDS011;35342;52.378;4.648;2023-03-11T17:26:42;6.47;;;2.20;;
46593;SDS011;35342;52.378;4.648;2023-03-11T17:29:09;7.15;;;2.78;;
46593;SDS011;35342;52.378;4.648;2023-03-11T17:31:35;7.10;;;3.28;;
46593;SDS011;35342;52.378;4.648;2023-03-11T17:34:01;8.95;;;2.40;;
46593;SDS011;35342;52.378;4.648;2023-03-11T17:36:27;6.90;;;3.40;;
46593;SDS011;35342;52.378;4.648;2023-03-11T17:38:53;5.85;;;2.80;;
46593;SDS011;35342;52.378;4.648;2023-03-11T17:41:20;5.78;;;3.60;;
46593;SDS011;35342;52.378;4.648;2023-03-11T17:43:47;24.02;;;11.52;;
46593;SDS011;35342;52.378;4.648;2023-03-11T17:46:14;11.85;;;4.88;;
46593;SDS011;35342;52.378;4.648;2023-03-11T17:48:47;10.63;;;4.47;;
46593;SDS011;35342;52.378;4.648;2023-03-11T17:51:19;10.98;;;5.38;;
46593;SDS011;35342;52.378;4.648;2023-03-11T17:53:48;11.38;;;5.45;;
46593;SDS011;35342;52.378;4.648;2023-03-11T17:56:15;14.73;;;5.97;;
46593;SDS011;35342;52.378;4.648;2023-03-11T17:58:44;8.15;;;4.05;;
46593;SDS011;35342;52.378;4.648;2023-03-11T18:01:18;17.02;;;7.63;;
46593;SDS011;35342;52.378;4.648;2023-03-11T18:03:46;9.52;;;4.38;;
46593;SDS011;35342;52.378;4.648;2023-03-11T18:06:13;4.72;;;3.10;;
46593;SDS011;35342;52.378;4.648;2023-03-11T18:08:39;6.93;;;3.58;;
46593;SDS011;35342;52.378;4.648;2023-03-11T18:11:07;10.43;;;5.20;;
46593;SDS011;35342;52.378;4.648;2023-03-11T18:13:36;8.07;;;3.83;;
46593;SDS011;35342;52.378;4.648;2023-03-11T18:16:04;6.28;;;3.33;;